Norwalk, CT (06850)

3:22 AM EST on November 27, 2014 (GMT -0500)
Silvermine | Change Station
CLOSE
Current Station
Personal Weather Station
Location: Norwalk, CT
Elevation: 260 ft
Nearby Weather Stations

Elev 260 ft 41.13 °N, 73.45 °W | Updated 1 second ago

Overcast
Overcast
33.1 °F
Feels Like 28 °F
N
5.1
Wind Variable Wind from NW
Gusts 10.8 mph

Today
High -- | Low -- °F
--% Chance of Precip.
Yesterday
High -- | Low -- °F
Precip. -- in
6:55 AM 4:27 PM
Waxing Crescent, 27% visible
Pressure 29.89 in
Visibility 10.0 miles
Clouds Few 1200 ft
Mostly Cloudy 9000 ft
Windchill 28 °F
Dew Point 30 °F
Humidity 89%
Rainfall 0.00 in
Snow Depth Not available.
UV 0.0 out of 12
Pollen .10 out of 12
Air Quality Not available.
Flu Activity Not available.
METAR KHPN 270756Z 33013G22KT 10SM FEW012 BKN090 01/M02 A2987 RMK AO2 SNE51 SLP121 P0000 T00061022

More Conditions Fewer Conditions

Pressure 29.89 in
Visibility 10.0 miles
Clouds Few 1200 ft
Mostly Cloudy 9000 ft
Windchill 28 °F
Dew Point 30 °F
Humidity 89%
Rainfall 0.00 in
Snow Depth Not available.
UV 0.0 out of 12
Pollen .10 out of 12
Air Quality Not available.
Flu Activity Not available.
METAR KHPN 270756Z 33013G22KT 10SM FEW012 BKN090 01/M02 A2987 RMK AO2 SNE51 SLP121 P0000 T00061022

More Conditions Fewer Conditions

10-Day Weather Forecast

Almanac

Astronomy

Nov. 27, 2014 Rise Set
Actual Time
Civil Twilight
Nautical Twilight
Astronomical Twilight
Moon
Length of Visible Light
Length of Day
Tomorrow will be .
, % of the Moon is Illuminated

Today's Extremes

State Highs State Lows

Community

WunderPhotos

Upload Photos

1,773,965 photos uploaded!

WunderBlogs® & News

Nearby

Air Quality

  Air Quality AQ Index Pollutant
Not available.

Snow Depth

Station Depth Elevation

Earthquake Activity

City Distance Mag. Time & Date
Minimum magnitude displayed is 2.5.

Coastal Water Temperatures

Place Temperature

Nearby Weather Stations